createdAt,value
2018-09-24T00:01:36.235Z,14.77
2018-09-24T00:04:04.462Z,14.20
2018-09-24T00:06:32.676Z,15.60
2018-09-24T00:09:00.821Z,15.33
2018-09-24T00:11:29.000Z,15.90
2018-09-24T00:13:57.169Z,15.40
2018-09-24T00:16:25.337Z,16.97
2018-09-24T00:18:53.586Z,15.70
2018-09-24T00:21:21.713Z,16.67
2018-09-24T00:23:49.993Z,17.00
2018-09-24T00:26:18.134Z,16.30
2018-09-24T00:28:46.295Z,16.93
2018-09-24T00:31:14.484Z,17.30
2018-09-24T00:33:42.707Z,16.60
2018-09-24T00:36:10.982Z,17.10
2018-09-24T00:38:39.116Z,17.30
2018-09-24T00:41:07.326Z,17.80
2018-09-24T00:43:35.502Z,18.70
2018-09-24T00:46:03.612Z,17.47
2018-09-24T00:48:31.685Z,16.20
2018-09-24T00:50:59.811Z,16.80
2018-09-24T00:53:28.026Z,19.90
2018-09-24T00:55:56.103Z,19.20
2018-09-24T00:58:24.296Z,17.40
2018-09-24T01:00:52.500Z,18.03
2018-09-24T01:03:20.676Z,17.97
2018-09-24T01:05:49.048Z,20.03
2018-09-24T01:08:17.218Z,20.77
2018-09-24T01:10:45.413Z,21.10
2018-09-24T01:13:13.577Z,18.80
2018-09-24T01:15:41.749Z,17.10
2018-09-24T01:18:10.196Z,18.63
2018-09-24T01:20:38.384Z,18.90
2018-09-24T01:23:06.547Z,21.40
2018-09-24T01:25:34.810Z,18.63
2018-09-24T01:28:02.962Z,26.53
2018-09-24T01:30:31.063Z,18.53
2018-09-24T01:32:59.307Z,20.60
2018-09-24T01:35:27.467Z,17.73
2018-09-24T01:37:55.592Z,16.67
2018-09-24T01:40:23.801Z,16.97
2018-09-24T01:42:51.928Z,16.83
2018-09-24T01:45:20.074Z,16.60
2018-09-24T01:47:48.223Z,16.13
2018-09-24T01:50:16.378Z,17.97
2018-09-24T01:52:44.561Z,16.83
2018-09-24T01:55:12.716Z,16.20
2018-09-24T01:57:40.919Z,16.50
2018-09-24T02:00:09.073Z,17.67
2018-09-24T02:02:37.246Z,19.17
2018-09-24T02:05:06.840Z,17.73
2018-09-24T02:07:35.021Z,17.03
2018-09-24T02:10:03.230Z,16.87
2018-09-24T02:12:31.420Z,17.00
2018-09-24T02:14:59.614Z,20.03
2018-09-24T02:17:28.551Z,17.20
2018-09-24T02:19:56.717Z,16.77
2018-09-24T02:22:26.441Z,16.73
2018-09-24T02:24:55.216Z,20.17
2018-09-24T02:27:23.413Z,17.57
2018-09-24T02:29:51.581Z,17.50
2018-09-24T02:32:19.843Z,17.20
2018-09-24T02:34:49.028Z,16.57
2018-09-24T02:37:18.179Z,18.27
2018-09-24T02:39:46.513Z,18.60
2018-09-24T02:42:14.715Z,17.63
2018-09-24T02:44:42.950Z,17.90
2018-09-24T02:47:11.161Z,16.87
2018-09-24T02:49:39.350Z,18.00
2018-09-24T02:52:07.505Z,18.57
2018-09-24T02:54:36.281Z,17.03
2018-09-24T02:57:04.450Z,19.63
2018-09-24T02:59:32.702Z,21.07
2018-09-24T03:02:00.857Z,18.70
2018-09-24T03:04:30.462Z,18.67
2018-09-24T03:06:58.603Z,18.60
2018-09-24T03:09:26.788Z,17.27
2018-09-24T03:11:55.004Z,22.43
2018-09-24T03:14:24.070Z,18.27
2018-09-24T03:16:53.103Z,17.90
2018-09-24T03:19:21.297Z,19.80
2018-09-24T03:21:49.493Z,18.97
2018-09-24T03:24:17.643Z,18.30
2018-09-24T03:26:45.868Z,18.80
2018-09-24T03:29:24.034Z,17.90
2018-09-24T03:31:52.558Z,26.77
2018-09-24T03:34:20.789Z,19.33
2018-09-24T03:36:49.638Z,18.13
2018-09-24T03:39:18.090Z,17.47
2018-09-24T03:41:46.389Z,18.77
2018-09-24T03:44:14.513Z,19.07
2018-09-24T03:46:42.900Z,18.53
2018-09-24T03:49:11.491Z,19.47
2018-09-24T03:51:39.939Z,18.40
2018-09-24T03:54:08.865Z,19.33
2018-09-24T03:56:37.278Z,18.00
2018-09-24T03:59:05.515Z,18.13
2018-09-24T04:01:33.705Z,18.30
2018-09-24T04:04:07.460Z,18.47
2018-09-24T04:06:41.217Z,18.63
2018-09-24T04:09:14.819Z,17.60
2018-09-24T04:11:48.541Z,18.73
2018-09-24T04:14:22.191Z,18.93
2018-09-24T04:16:55.998Z,19.63
2018-09-24T04:19:29.677Z,18.77
2018-09-24T04:22:03.420Z,18.73
2018-09-24T04:24:36.895Z,20.30
2018-09-24T04:27:10.873Z,18.43
2018-09-24T04:29:44.569Z,20.20
2018-09-24T04:32:18.338Z,18.47
2018-09-24T04:34:51.989Z,18.57
2018-09-24T04:37:25.591Z,19.03
2018-09-24T04:39:59.261Z,18.70
2018-09-24T04:42:33.024Z,17.53
2018-09-24T04:45:06.597Z,18.23
2018-09-24T04:47:40.263Z,18.50
2018-09-24T04:50:13.957Z,18.07
2018-09-24T04:52:47.716Z,18.30
2018-09-24T04:55:21.324Z,18.83
2018-09-24T04:57:55.020Z,18.03
2018-09-24T05:00:28.779Z,18.10
2018-09-24T05:03:02.344Z,20.43
2018-09-24T05:05:35.984Z,19.67
2018-09-24T05:08:09.654Z,18.53
2018-09-24T05:10:43.157Z,18.37
2018-09-24T05:13:16.880Z,17.90
2018-09-24T05:15:50.355Z,19.20
2018-09-24T05:18:24.035Z,18.73
2018-09-24T05:20:57.641Z,28.93
2018-09-24T05:23:31.236Z,19.07
2018-09-24T05:26:04.856Z,19.00
2018-09-24T05:28:38.499Z,18.53
2018-09-24T05:31:12.265Z,18.70
2018-09-24T05:33:46.049Z,20.00
2018-09-24T05:36:19.570Z,18.70
2018-09-24T05:38:53.113Z,19.37
2018-09-24T05:41:26.688Z,19.60
2018-09-24T05:44:00.377Z,20.40
2018-09-24T05:46:34.093Z,19.50
2018-09-24T05:49:07.580Z,19.53
2018-09-24T05:51:41.149Z,20.83
2018-09-24T05:54:14.786Z,23.00
2018-09-24T05:56:48.478Z,20.23
2018-09-24T05:59:21.922Z,20.93
2018-09-24T06:01:55.580Z,19.87
2018-09-24T06:04:29.317Z,19.37
2018-09-24T06:07:03.088Z,20.73
2018-09-24T06:09:36.693Z,19.60
2018-09-24T06:12:10.243Z,20.40
2018-09-24T06:14:44.006Z,20.30
2018-09-24T06:17:17.720Z,20.10
2018-09-24T06:19:51.289Z,21.30
2018-09-24T06:22:25.014Z,19.80
2018-09-24T06:24:58.716Z,21.07
2018-09-24T06:27:32.320Z,21.20
2018-09-24T06:30:06.046Z,20.60
2018-09-24T06:32:39.746Z,21.67
2018-09-24T06:35:13.402Z,21.33
2018-09-24T06:37:47.049Z,21.17
2018-09-24T06:40:20.720Z,20.57
2018-09-24T06:42:54.438Z,20.90
2018-09-24T06:45:28.005Z,22.27
2018-09-24T06:48:01.724Z,20.87
2018-09-24T06:50:35.284Z,20.30
2018-09-24T06:53:08.952Z,22.37
2018-09-24T06:55:42.510Z,20.97
2018-09-24T06:58:16.081Z,22.23
2018-09-24T07:00:49.902Z,21.20
2018-09-24T07:03:23.598Z,21.20
2018-09-24T07:05:57.244Z,21.47
2018-09-24T07:08:30.858Z,21.90
2018-09-24T07:11:04.441Z,22.00
2018-09-24T07:13:38.177Z,21.20
2018-09-24T07:16:12.217Z,22.43
2018-09-24T07:18:45.796Z,22.83
2018-09-24T07:21:19.393Z,23.53
2018-09-24T07:23:53.084Z,21.27
2018-09-24T07:26:26.676Z,22.30
2018-09-24T07:29:00.257Z,21.60
2018-09-24T07:31:33.888Z,23.50
2018-09-24T07:34:07.753Z,22.50
2018-09-24T07:36:41.384Z,23.20
2018-09-24T07:39:15.569Z,22.23
2018-09-24T07:41:49.339Z,24.40
2018-09-24T07:44:23.028Z,23.40
2018-09-24T07:46:56.549Z,23.13
2018-09-24T07:49:30.023Z,23.10
2018-09-24T07:52:03.823Z,22.40
2018-09-24T07:54:37.361Z,21.77
2018-09-24T07:57:10.789Z,24.60
2018-09-24T07:59:44.198Z,24.10
2018-09-24T08:02:18.901Z,25.60
2018-09-24T08:04:52.648Z,24.87
2018-09-24T08:07:26.285Z,23.50
2018-09-24T08:09:59.918Z,23.37
2018-09-24T08:12:33.456Z,24.43
2018-09-24T08:15:07.094Z,23.83
2018-09-24T08:17:40.609Z,23.70
2018-09-24T08:20:14.265Z,24.03
2018-09-24T08:22:47.817Z,24.50
2018-09-24T08:25:21.644Z,24.03
2018-09-24T08:27:55.366Z,31.73
2018-09-24T08:30:29.164Z,24.43
2018-09-24T08:33:02.834Z,24.70
2018-09-24T08:35:36.464Z,23.63
2018-09-24T08:38:10.150Z,24.30
2018-09-24T08:40:43.656Z,24.97
2018-09-24T08:43:17.222Z,24.67
2018-09-24T08:45:50.925Z,25.10
2018-09-24T08:48:24.347Z,28.37
2018-09-24T08:50:57.790Z,24.80
2018-09-24T08:53:31.447Z,26.23
2018-09-24T08:56:05.166Z,28.53
2018-09-24T08:58:38.813Z,26.00
2018-09-24T09:01:12.387Z,25.70
2018-09-24T09:03:46.011Z,48.97
2018-09-24T09:06:19.569Z,25.23
2018-09-24T09:08:53.166Z,24.40
2018-09-24T09:11:26.717Z,25.50
2018-09-24T09:14:00.330Z,24.87
2018-09-24T09:16:34.023Z,25.47
2018-09-24T09:19:07.725Z,26.17
2018-09-24T09:21:41.473Z,25.57
2018-09-24T09:24:15.181Z,26.63
2018-09-24T09:26:48.803Z,26.30
2018-09-24T09:29:22.528Z,26.20
2018-09-24T09:31:56.147Z,27.30
2018-09-24T09:34:29.917Z,25.07
2018-09-24T09:37:03.513Z,25.87
2018-09-24T09:39:37.296Z,24.97
2018-09-24T09:42:11.079Z,25.70
2018-09-24T09:44:44.783Z,25.50
2018-09-24T09:47:18.530Z,25.37
2018-09-24T09:49:52.275Z,25.43
2018-09-24T09:52:25.802Z,26.17
2018-09-24T09:54:59.468Z,24.90
2018-09-24T09:57:33.015Z,25.13
2018-09-24T10:00:06.654Z,25.67
2018-09-24T10:02:40.334Z,28.30
2018-09-24T10:05:14.027Z,26.70
2018-09-24T10:07:47.644Z,24.70
2018-09-24T10:10:21.225Z,25.53
2018-09-24T10:12:54.869Z,26.33
2018-09-24T10:15:28.552Z,25.23
2018-09-24T10:18:02.134Z,25.70
2018-09-24T10:20:36.107Z,27.00
2018-09-24T10:23:10.239Z,31.90
2018-09-24T10:25:44.182Z,25.70
2018-09-24T10:28:17.914Z,26.30
2018-09-24T10:30:51.893Z,25.50
2018-09-24T10:33:25.438Z,24.77
2018-09-24T10:35:58.944Z,25.50
2018-09-24T10:38:32.686Z,25.70
2018-09-24T10:41:06.270Z,26.40
2018-09-24T10:43:39.909Z,25.50
2018-09-24T10:46:13.708Z,25.63
2018-09-24T10:48:47.342Z,26.07
2018-09-24T10:51:21.020Z,26.27
2018-09-24T10:53:54.515Z,26.57
2018-09-24T10:56:28.128Z,25.03
2018-09-24T10:59:01.677Z,26.10
2018-09-24T11:01:35.422Z,25.93
2018-09-24T11:04:08.997Z,25.77
2018-09-24T11:06:42.688Z,25.57
2018-09-24T11:09:16.325Z,26.63
2018-09-24T11:11:50.051Z,26.40
2018-09-24T11:14:23.689Z,26.37
2018-09-24T11:16:57.488Z,28.37
2018-09-24T11:19:31.209Z,25.47
2018-09-24T11:22:05.044Z,26.00
2018-09-24T11:24:38.693Z,26.40
2018-09-24T11:27:12.397Z,25.90
2018-09-24T11:29:46.012Z,27.23
2018-09-24T11:32:19.727Z,26.27
2018-09-24T11:34:53.299Z,25.50
2018-09-24T11:37:27.051Z,26.20
2018-09-24T11:40:00.653Z,26.53
2018-09-24T11:42:34.396Z,26.60
2018-09-24T11:45:08.010Z,26.20
2018-09-24T11:47:41.749Z,25.93
2018-09-24T11:50:15.426Z,25.50
2018-09-24T11:52:49.125Z,26.43
2018-09-24T11:55:22.868Z,26.10
2018-09-24T11:57:56.692Z,25.20
2018-09-24T12:00:30.486Z,25.90
2018-09-24T12:03:04.245Z,25.17
2018-09-24T12:05:37.775Z,26.07
2018-09-24T12:08:11.333Z,26.57
2018-09-24T12:10:45.003Z,26.40
2018-09-24T12:13:18.639Z,25.80
2018-09-24T12:15:52.281Z,25.63
2018-09-24T12:18:25.802Z,25.93
2018-09-24T12:20:59.580Z,26.83
2018-09-24T12:23:33.067Z,25.30
2018-09-24T12:26:06.818Z,25.60
2018-09-24T12:28:41.347Z,39.17
2018-09-24T12:31:15.015Z,26.80
2018-09-24T12:33:48.641Z,25.43
2018-09-24T12:36:22.349Z,25.40
2018-09-24T12:38:55.994Z,25.90
2018-09-24T12:41:29.504Z,27.63
2018-09-24T12:44:03.025Z,27.10
2018-09-24T12:46:36.662Z,26.83
2018-09-24T12:49:10.289Z,26.33
2018-09-24T12:51:44.018Z,26.27
2018-09-24T12:54:17.581Z,26.20
2018-09-24T12:56:51.172Z,25.90
2018-09-24T12:59:24.922Z,26.90
2018-09-24T13:01:58.586Z,25.60
2018-09-24T13:04:32.336Z,25.80
2018-09-24T13:07:05.821Z,27.33
2018-09-24T13:09:39.480Z,25.37
2018-09-24T13:12:13.195Z,25.37
2018-09-24T13:14:46.818Z,28.30
2018-09-24T13:17:20.477Z,26.57
2018-09-24T13:27:02.672Z,25.07
2018-09-24T13:29:36.250Z,26.53
2018-09-24T13:32:09.954Z,25.60
2018-09-24T13:34:43.570Z,24.90
2018-09-24T13:37:17.122Z,24.73
2018-09-24T13:39:50.692Z,25.70
2018-09-24T13:42:24.211Z,26.47
2018-09-24T13:44:57.929Z,26.40
2018-09-24T13:47:31.493Z,26.80
2018-09-24T13:50:05.056Z,26.60
2018-09-24T13:52:38.678Z,25.70
2018-09-24T13:55:12.617Z,26.23
2018-09-24T13:57:46.219Z,27.43
2018-09-24T14:00:19.914Z,26.43
2018-09-24T14:02:53.732Z,25.37
2018-09-24T14:05:27.333Z,25.70
2018-09-24T14:08:00.950Z,26.20
2018-09-24T14:10:34.692Z,25.20
2018-09-24T14:13:08.360Z,25.43
2018-09-24T14:15:42.056Z,28.93
2018-09-24T14:18:15.633Z,26.80
2018-09-24T14:20:49.262Z,26.20
2018-09-24T14:23:22.744Z,25.17
2018-09-24T14:25:56.315Z,26.73
2018-09-24T14:28:30.070Z,25.47
2018-09-24T14:31:03.730Z,25.40
2018-09-24T14:33:37.333Z,27.03
2018-09-24T14:36:10.997Z,26.70
2018-09-24T14:38:44.731Z,26.10
2018-09-24T14:41:18.167Z,25.57
2018-09-24T14:43:51.897Z,25.47
2018-09-24T14:46:25.580Z,25.80
2018-09-24T14:48:59.257Z,26.03
2018-09-24T14:51:32.929Z,27.70
2018-09-24T14:54:06.563Z,26.10
2018-09-24T14:56:40.344Z,27.17
2018-09-24T14:59:13.974Z,28.37
2018-09-24T15:01:47.569Z,27.77
2018-09-24T15:04:21.224Z,25.70
2018-09-24T15:06:55.147Z,27.23
2018-09-24T15:09:28.737Z,26.93
2018-09-24T15:12:02.559Z,26.90
2018-09-24T15:14:36.142Z,26.00
2018-09-24T15:17:09.939Z,26.60
2018-09-24T15:19:43.634Z,28.53
2018-09-24T15:22:17.218Z,26.33
2018-09-24T15:24:50.905Z,25.37
2018-09-24T15:27:24.590Z,25.80
2018-09-24T15:29:58.230Z,25.67
2018-09-24T15:32:31.945Z,27.07
2018-09-24T15:35:05.563Z,38.67
2018-09-24T15:37:39.299Z,25.90
2018-09-24T15:40:13.097Z,26.33
2018-09-24T15:42:46.834Z,25.07
2018-09-24T15:45:20.381Z,25.70
2018-09-24T15:47:54.086Z,26.30
2018-09-24T15:50:28.037Z,26.47
2018-09-24T15:53:01.921Z,25.37
2018-09-24T15:55:35.505Z,25.70
2018-09-24T15:58:09.262Z,25.00
2018-09-24T16:00:42.873Z,26.17
2018-09-24T16:03:16.706Z,24.83
2018-09-24T16:05:50.327Z,25.23
2018-09-24T16:08:24.155Z,24.40
2018-09-24T16:10:58.076Z,25.63
2018-09-24T16:13:31.792Z,24.17
2018-09-24T16:16:05.531Z,24.27
2018-09-24T16:18:39.253Z,29.93
2018-09-24T16:21:12.929Z,24.80
2018-09-24T16:23:46.681Z,25.20
2018-09-24T16:26:20.321Z,24.00
2018-09-24T16:28:54.290Z,24.30
2018-09-24T16:31:28.134Z,23.50
2018-09-24T16:34:01.885Z,24.83
2018-09-24T16:36:36.155Z,23.40
2018-09-24T16:39:12.470Z,24.27
2018-09-24T16:41:46.861Z,23.17
2018-09-24T16:44:20.735Z,23.07
2018-09-24T16:46:54.548Z,22.70
2018-09-24T16:49:28.270Z,22.83
2018-09-24T16:52:01.988Z,30.03
2018-09-24T16:54:35.746Z,22.73
2018-09-24T16:57:09.516Z,27.07
2018-09-24T16:59:43.222Z,27.60
2018-09-24T17:02:16.914Z,22.43
2018-09-24T17:04:50.597Z,22.97
2018-09-24T17:07:24.203Z,22.20
2018-09-24T17:09:57.917Z,22.70
2018-09-24T17:12:31.541Z,22.90
2018-09-24T17:15:05.410Z,22.47
2018-09-24T17:17:39.071Z,22.60
2018-09-24T17:20:12.808Z,21.77
2018-09-24T17:22:46.480Z,21.97
2018-09-24T17:25:20.253Z,23.37
2018-09-24T17:27:53.897Z,22.60
2018-09-24T17:30:27.533Z,24.17
2018-09-24T17:33:01.507Z,21.40
2018-09-24T17:35:35.346Z,21.43
2018-09-24T17:38:08.916Z,21.40
2018-09-24T17:40:42.528Z,21.80
2018-09-24T17:43:16.354Z,26.57
2018-09-24T17:45:50.060Z,21.07
2018-09-24T17:48:23.638Z,21.20
2018-09-24T17:50:57.431Z,22.87
2018-09-24T17:53:31.142Z,20.70
2018-09-24T17:56:04.918Z,21.67
2018-09-24T17:58:38.494Z,21.10
2018-09-24T18:01:12.060Z,19.90
2018-09-24T18:03:45.829Z,20.60
2018-09-24T18:06:19.618Z,20.60
2018-09-24T18:08:53.447Z,20.73
2018-09-24T18:11:27.164Z,20.73
2018-09-24T18:14:00.820Z,21.43
2018-09-24T18:16:34.653Z,20.37
2018-09-24T18:19:08.063Z,20.97
2018-09-24T18:21:41.822Z,21.30
2018-09-24T18:24:15.281Z,20.90
2018-09-24T18:26:48.939Z,21.40
2018-09-24T18:29:22.590Z,20.93
2018-09-24T18:31:56.314Z,24.37
2018-09-24T18:34:30.032Z,20.07
2018-09-24T18:37:03.556Z,20.20
2018-09-24T18:39:37.300Z,21.10
2018-09-24T18:42:10.975Z,22.00
2018-09-24T18:44:44.753Z,24.10
2018-09-24T18:47:18.527Z,20.90
2018-09-24T18:49:52.227Z,20.93
2018-09-24T18:52:25.996Z,20.83
2018-09-24T18:54:59.405Z,20.63
2018-09-24T18:57:33.142Z,21.17
2018-09-24T19:00:06.905Z,20.20
2018-09-24T19:02:40.486Z,20.73
2018-09-24T19:05:14.173Z,20.30
2018-09-24T19:07:47.879Z,20.37
2018-09-24T19:10:21.518Z,21.73
2018-09-24T19:12:55.095Z,19.97
2018-09-24T19:15:28.777Z,21.53
2018-09-24T19:18:02.279Z,24.07
2018-09-24T19:20:36.187Z,20.50
2018-09-24T19:23:09.742Z,20.10
2018-09-24T19:25:43.526Z,20.40
2018-09-24T19:28:17.082Z,20.00
2018-09-24T19:30:50.776Z,21.97
2018-09-24T19:33:24.451Z,20.17
2018-09-24T19:35:58.132Z,20.03
2018-09-24T19:38:31.869Z,20.40
2018-09-24T19:41:05.516Z,19.67
2018-09-24T19:43:39.367Z,19.60
2018-09-24T19:46:13.188Z,20.07
2018-09-24T19:48:46.796Z,20.33
2018-09-24T19:51:20.614Z,20.43
2018-09-24T19:53:54.299Z,18.90
2018-09-24T19:56:28.213Z,19.23
2018-09-24T19:59:01.847Z,18.93
2018-09-24T20:01:35.701Z,19.60
2018-09-24T20:04:09.124Z,19.27
2018-09-24T20:06:42.825Z,19.00
2018-09-24T20:09:16.577Z,20.47
2018-09-24T20:11:50.338Z,18.63
2018-09-24T20:14:23.964Z,19.70
2018-09-24T20:16:57.752Z,18.80
2018-09-24T20:19:31.497Z,19.97
2018-09-24T20:22:05.029Z,19.37
2018-09-24T20:24:38.538Z,19.63
2018-09-24T20:27:12.429Z,19.20
2018-09-24T20:29:46.185Z,19.17
2018-09-24T20:32:19.793Z,18.83
2018-09-24T20:34:53.407Z,18.17
2018-09-24T20:37:27.038Z,18.07
2018-09-24T20:40:00.606Z,18.23
2018-09-24T20:42:34.332Z,18.30
2018-09-24T20:45:07.990Z,18.93
2018-09-24T20:47:41.678Z,19.43
2018-09-24T20:50:15.424Z,17.93
2018-09-24T20:52:49.259Z,18.63
2018-09-24T20:55:22.921Z,18.33
2018-09-24T20:57:56.781Z,17.80
2018-09-24T21:00:30.556Z,18.73
2018-09-24T21:03:04.294Z,17.70
2018-09-24T21:05:37.857Z,17.53
2018-09-24T21:08:11.541Z,18.07
2018-09-24T21:10:45.368Z,17.13
2018-09-24T21:13:19.028Z,18.07
2018-09-24T21:15:52.809Z,18.53
2018-09-24T21:18:26.421Z,17.40
2018-09-24T21:21:00.121Z,17.63
2018-09-24T21:23:33.760Z,18.03
2018-09-24T21:26:07.353Z,18.50
2018-09-24T21:28:41.120Z,17.43
2018-09-24T21:31:14.671Z,18.00
2018-09-24T21:33:48.437Z,17.90
2018-09-24T21:36:22.085Z,17.67
2018-09-24T21:38:55.713Z,18.27
2018-09-24T21:41:29.349Z,18.10
2018-09-24T21:44:03.121Z,17.50
2018-09-24T21:46:36.858Z,17.67
2018-09-24T21:49:10.569Z,17.77
2018-09-24T21:51:44.388Z,19.17
2018-09-24T21:54:17.962Z,19.70
2018-09-24T21:56:51.524Z,19.80
2018-09-24T21:59:25.134Z,19.00
2018-09-24T22:01:58.766Z,19.60
2018-09-24T22:04:32.518Z,19.00
2018-09-24T22:07:06.065Z,19.60
2018-09-24T22:09:39.770Z,19.77
2018-09-24T22:12:13.493Z,19.23
2018-09-24T22:14:47.285Z,19.10
2018-09-24T22:17:21.051Z,18.63
2018-09-24T22:19:54.794Z,19.17
2018-09-24T22:22:28.276Z,18.73
2018-09-24T22:25:01.923Z,19.27
2018-09-24T22:27:35.690Z,18.60
2018-09-24T22:30:09.337Z,19.17
2018-09-24T22:32:42.896Z,18.87
2018-09-24T22:35:16.495Z,19.73
2018-09-24T22:37:50.032Z,18.87
2018-09-24T22:40:23.756Z,19.03
2018-09-24T22:42:57.365Z,19.50
2018-09-24T22:45:30.992Z,24.63
2018-09-24T22:48:04.593Z,18.07
2018-09-24T22:50:38.142Z,19.43
2018-09-24T22:53:11.885Z,18.50
2018-09-24T22:55:45.536Z,17.90
2018-09-24T22:58:19.197Z,17.60
2018-09-24T23:00:52.794Z,18.70
2018-09-24T23:03:26.497Z,18.50
2018-09-24T23:06:00.137Z,19.30
2018-09-24T23:08:33.544Z,19.50
2018-09-24T23:11:07.104Z,19.57
2018-09-24T23:13:40.925Z,21.30
2018-09-24T23:16:14.670Z,19.93
2018-09-24T23:18:48.601Z,19.57
2018-09-24T23:21:22.153Z,19.90
2018-09-24T23:23:55.753Z,18.77
2018-09-24T23:26:29.417Z,18.87
2018-09-24T23:29:02.996Z,19.13
2018-09-24T23:31:36.758Z,19.43
2018-09-24T23:34:10.405Z,19.57
2018-09-24T23:36:49.999Z,18.93
2018-09-24T23:39:23.638Z,18.57
2018-09-24T23:41:57.254Z,18.93
2018-09-24T23:44:31.066Z,17.90
2018-09-24T23:47:04.748Z,18.37
2018-09-24T23:49:38.400Z,18.37
2018-09-24T23:52:12.192Z,18.37
2018-09-24T23:54:45.734Z,17.20
2018-09-24T23:57:19.263Z,18.87
2018-09-24T23:59:52.964Z,18.60
